Flight Track Log - Related Links

Times and Time Zones

All times are in EDT time to prevent confusion due to time zone crossing. See the TMC496 flight status page for this flight to view local times or setup timezone preferences in your user account.

Time Position Orientation Groundspeed Altitude Reporting Facility
EDT Latitude Longitude Course Direction KTS MPH feet Rate Location/Type
01:56PM 35.8358 -83.9603 40° Northeast 154 177 3,100  Level Memphis Center
01:57PM 35.8642 -83.9311 40° Northeast 182 209 4,700 2,182 Climbing Atlanta Center
01:58PM 35.9122 -83.9389 353° North 174 200 7,100 2,233 Climbing Atlanta Center
02:00PM 35.8706 -84.1003 256° West 190 219 11,400 2,000 Climbing Atlanta Center
02:01PM 35.8433 -84.1950 251° West 247 284 13,100 1,700 Climbing Atlanta Center
02:02PM 35.8161 -84.2947 251° West 290 334 14,800 1,850 Climbing Atlanta Center
02:03PM 35.7867 -84.3972 251° West 313 360 16,800 1,767 Climbing Atlanta Center
02:05PM 35.7275 -84.6014 250° West 318 366 20,100 1,600 Climbing Atlanta Center
02:06PM 35.6936 -84.7111 249° West 330 380 21,600 1,350 Climbing Atlanta Center
02:07PM 35.6658 -84.8133 252° West 336 387 22,800 1,200 Climbing Atlanta Center
02:08PM 35.6294 -84.9306 249° West 357 411 24,000 1,100 Climbing Atlanta Center
02:09PM 35.5953 -85.0528 251° West 371 427 25,000 947 Climbing Atlanta Center
02:10PM 35.5722 -85.1250 249° West 386 444 25,500 866 Climbing Memphis Center
02:11PM 35.5353 -85.2536 251° West 394 453 26,400 919 Climbing Memphis Center
02:12PM 35.4961 -85.3836 250° West 400 460 27,400 919 Climbing Memphis Center
02:13PM 35.4486 -85.5422 250° West 407 468 28,300 726 Climbing Memphis Center
02:14PM 35.4094 -85.6744 250° West 409 471 28,900 629 Climbing Memphis Center
02:15PM 35.3683 -85.8064 249° West 410 472 29,600 629 Climbing Memphis Center
02:16PM 35.3286 -85.9392 250° West 411 473 30,200 581 Climbing Memphis Center
02:17PM 35.2883 -86.0708 249° West 411 473 30,800 629 Climbing Memphis Center
02:18PM 35.2467 -86.2092 250° West 411 473 31,500 629 Climbing Memphis Center
02:19PM 35.2056 -86.3403 249° West 411 473 32,100 726 Climbing Memphis Center
02:20PM 35.1650 -86.4722 249° West 411 473 33,000 871 Climbing Memphis Center
02:21PM 35.1244 -86.6036 249° West 411 473 33,900 919 Climbing Memphis Center
02:22PM 35.0792 -86.7472 249° West 408 470 34,900 968 Climbing Memphis Center
02:23PM 35.0397 -86.8725 249° West 404 465 35,900 823 Climbing Memphis Center
02:24PM 35.0014 -86.9967 249° West 398 458 36,600 629 Climbing Memphis Center
02:25PM 34.9617 -87.1222 249° West 398 458 37,200 581 Climbing Memphis Center
02:26PM 34.9144 -87.2722 249° West 398 458 37,800 387 Climbing Memphis Center
02:27PM 34.8744 -87.3997 249° West 401 461 38,000 97 Climbing Memphis Center
02:28PM 34.8328 -87.5308 249° West 412 474 38,000  Level Memphis Center
02:29PM 34.7906 -87.6639 249° West 421 484 38,000  Level Memphis Center
02:31PM 34.7456 -87.8011 248° West 435 501 38,000  Level Memphis Center
02:32PM 34.6917 -87.9681 249° West 444 511 38,000  Level Memphis Center
02:33PM 34.6447 -88.1092 248° West 448 516 38,000  Level Memphis Center
02:34PM 34.5975 -88.2508 248° West 453 521 38,000  Level Memphis Center
02:35PM 34.5506 -88.3942 248° West 456 525 38,000  Level Memphis Center
02:36PM 34.5019 -88.5381 248° West 458 527 38,000  Level Memphis Center
02:37PM 34.4436 -88.7114 248° West 462 532 38,000  Level Memphis Center
02:38PM 34.3989 -88.8453 248° West 464 534 38,000  Level Memphis Center
02:39PM 34.3492 -88.9914 248° West 465 535 38,000  Level Memphis Center
02:40PM 34.3003 -89.1364 248° West 465 535 38,000  Level Memphis Center
02:41PM 34.2425 -89.3081 248° West 464 534 38,000  Level Memphis Center
02:42PM 34.1933 -89.4531 248° West 463 533 38,000  Level Memphis Center
02:43PM 34.1439 -89.5964 247° West 463 533 38,000  Level Memphis Center
02:44PM 34.0944 -89.7411 248° West 463 533 38,000  Level Memphis Center
02:45PM 34.0453 -89.8864 248° West 463 533 38,000  Level Memphis Center
02:46PM 33.9956 -90.0306 247° West 464 534 38,000  Level Memphis Center
02:47PM 33.9350 -90.2031 247° West 464 534 38,000  Level Memphis Center
02:48PM 33.8853 -90.3456 247° West 464 534 38,000  Level Memphis Center
02:49PM 33.8342 -90.4892 247° West 464 534 38,000  Level Memphis Center
02:50PM 33.7881 -90.6203 247° West 464 534 38,000  Level Memphis Center
02:51PM 33.7283 -90.7875 247° West 463 533 38,000  Level Memphis Center
02:52PM 33.6789 -90.9283 247° West 463 533 38,000  Level Memphis Center
02:53PM 33.6281 -91.0683 246° West 463 533 38,000  Level Memphis Center
02:54PM 33.5781 -91.2083 247° West 463 533 38,000  Level Memphis Center
02:55PM 33.5275 -91.3475 246° West 463 533 38,000  Level Memphis Center
02:56PM 33.4664 -91.5133 246° West 462 532 38,000  Level Memphis Center
02:57PM 33.4178 -91.6517 247° West 460 529 38,000  Level Memphis Center
02:58PM 33.3622 -91.8006 246° West 460 529 38,000  Level Memphis Center
02:59PM 33.3100 -91.9389 246° West 459 528 38,000  Level Memphis Center
03:01PM 33.2581 -92.0778 246° West 459 528 38,000  Level Memphis Center
03:02PM 33.2069 -92.2156 246° West 459 528 38,000  Level Memphis Center
03:03PM 33.1561 -92.3517 246° West 456 525 38,000  Level Memphis Center
03:03PM 33.1172 -92.4592 247° West 453 521 38,000  Level Fort Worth Center
03:04PM 33.0556 -92.6253 246° West 455 524 38,000  Level Fort Worth Center
03:05PM 33.0033 -92.7614 245° Southwest 453 521 38,000  Level Fort Worth Center
03:07PM 32.9519 -92.8981 246° West 452 520 38,000  Level Fort Worth Center
03:08PM 32.8992 -93.0347 245° Southwest 453 521 38,000  Level Fort Worth Center
03:09PM 32.8478 -93.1700 246° West 452 520 38,000  Level Fort Worth Center
03:10PM 32.7950 -93.3050 245° Southwest 450 518 38,000  Level Fort Worth Center
03:11PM 32.7331 -93.4656 245° Southwest 445 512 38,000  Level Fort Worth Center
03:12PM 32.6800 -93.6011 245° Southwest 448 516 38,000  Level Fort Worth Center
03:13PM 32.6289 -93.7372 246° West 451 519 38,000  Level Fort Worth Center
03:14PM 32.5764 -93.8725 245° Southwest 452 520 38,000  Level Fort Worth Center
03:15PM 32.5236 -94.0058 245° Southwest 446 513 38,000  Level Fort Worth Center
03:16PM 32.4700 -94.1397 245° Southwest 447 514 38,000  Level Fort Worth Center
03:17PM 32.4067 -94.3019 245° Southwest 450 518 38,000  Level Fort Worth Center
03:18PM 32.3536 -94.4356 245° Southwest 450 518 38,000  Level Fort Worth Center
03:19PM 32.3003 -94.5711 245° Southwest 451 519 38,000  Level Fort Worth Center
03:20PM 32.2458 -94.7039 244° Southwest 452 520 38,000  Level Fort Worth Center
03:21PM 32.1906 -94.8456 245° Southwest 458 527 38,000  Level Fort Worth Center
03:22PM 32.1364 -94.9806 245° Southwest 459 528 38,000  Level Fort Worth Center
03:23PM 32.0719 -95.1394 244° Southwest 455 524 38,000  Level Fort Worth Center
03:24PM 32.0169 -95.2728 244° Southwest 457 526 38,000  Level Fort Worth Center
03:25PM 31.9625 -95.4064 244° Southwest 455 524 38,000  Level Fort Worth Center
03:26PM 31.9094 -95.5372 244° Southwest 450 518 38,000  Level Fort Worth Center
03:27PM 31.8558 -95.6692 244° Southwest 449 517 38,000  Level Fort Worth Center
03:28PM 31.8011 -95.8028 244° Southwest 451 519 38,000  Level Fort Worth Center
03:29PM 31.7414 -95.9464 244° Southwest 451 519 38,000  Level Fort Worth Center
03:30PM 31.6872 -96.0772 244° Southwest 450 518 38,000  Level Fort Worth Center
03:31PM 31.6325 -96.2083 244° Southwest 449 517 38,000 -532 Level Fort Worth Center
03:32PM 31.5658 -96.3669 244° Southwest 451 519 36,900 -1,258 Descending Fort Worth Center
03:33PM 31.5094 -96.5033 244° Southwest 461 531 35,400 -1,694 Descending Fort Worth Center
03:34PM 31.4536 -96.6356 244° Southwest 456 525 33,400 -2,468 Descending Fort Worth Center
03:36PM 31.3983 -96.7653 243° Southwest 446 513 30,300 -2,941 Descending Fort Worth Center
03:36PM 31.3642 -96.8453 243° Southwest 450 518 28,400 -3,235 Descending Houston Center
03:37PM 31.2978 -97.0011 244° Southwest 451 519 24,800 -3,097 Descending Houston Center
03:38PM 31.2453 -97.1233 243° Southwest 430 495 22,000 -2,613 Descending Houston Center
03:39PM 31.1694 -97.2153 226° Southwest 403 464 19,400 -2,081 Descending Houston Center
03:40PM 31.0758 -97.2600 202° Southwest 365 420 17,700 -1,597 Descending Houston Center
03:41PM 30.9844 -97.2961 199° South 356 410 16,100 -1,694 Descending Houston Center
03:42PM 30.8775 -97.3375 198° South 356 410 14,200 -1,742 Descending Houston Center
03:43PM 30.7883 -97.3717 198° South 346 398 12,500 -1,584 Descending Houston Center
03:44PM 30.7033 -97.4144 203° Southwest 340 391 10,900 -1,632 Descending Houston Center
03:45PM 30.6211 -97.4797 214° Southwest 307 353 9,100 -1,548 Descending Houston Center
03:47PM 30.5553 -97.5297 213° Southwest 294 338 7,700 -1,355 Descending Houston Center
03:48PM 30.4933 -97.5786 214° Southwest 281 323 6,300 -1,306 Descending Houston Center
03:49PM 30.4314 -97.6275 214° Southwest 274 315 5,000 -1,306 Descending Houston Center
03:50PM 30.3661 -97.6611 204° Southwest 264 304 3,600 -1,296 Descending Houston Center
03:51PM 30.2889 -97.6606 180° South 243 280 2,300 -1,152 Descending Houston Center
03:52PM 30.2419 -97.6586 178° South 199 229 1,200 -581 Descending Houston Center
03:53PM 30.2031 -97.6550 175° South 188 216 1,100 -97 Descending Houston Center

Login

Don't have an account? Register now (free) for customized features, flight alerts, and more!